臺北終端管制區 - 桃園北區雷達席

METAR RCTP 051030Z 23012KT 9999 FEW020 32/25 Q1005 NOSIG RMK A2970(E)=

站台狀態:Online
最後更新:2020-07-05 18:30:02